Marianna, FL (32446)

10:17 PM CDT on August 01, 2014 (GMT -0500)
Marianna Municipal (KMAI) Elev 112 ft | 30.84 °N, 85.18 °W | Change Station

Current weather conditions updated 24 minutes ago

Clear
Clear
78 °F
Feels Like 78 °F
N
5
Wind Variable Wind from NE

Tomorrow is forecast to be nearly the same temperature as today. Scattered thunderstorms.

Today
High -- | Low -- °F
--% Chance of Precip.
Yesterday
High -- | Low -- °F
Precip. -- in
5:58 AM 7:35 PM
Waxing Crescent, 31% visible
Pressure 29.98 in
Visibility 9.0 miles
Clouds Clear
Dew Point 74 °F
Humidity 87%
Rainfall 0.00 in
Snow Depth Not available.
UV 0 out of 12
Pollen 4.00 out of 12
Air Quality Not available.
Flu Activity Not available.
METAR KMAI 020253Z AUTO 04004KT 9SM CLR 26/23 A2998 RMK AO2 SLP150 T02560233 51010

More Conditions Fewer Conditions

Pressure 29.98 in
Visibility 9.0 miles
Clouds Clear
Dew Point 74 °F
Humidity 87%
Rainfall 0.00 in
Snow Depth Not available.
UV 0 out of 12
Pollen 4.00 out of 12
Air Quality Not available.
Flu Activity Not available.
METAR KMAI 020253Z AUTO 04004KT 9SM CLR 26/23 A2998 RMK AO2 SLP150 T02560233 51010

More Conditions Fewer Conditions

10-Day Weather Forecast

Almanac

Astronomy

Aug. 01, 2014 Rise Set
Actual Time 5:58 AM CDT 7:35 PM CDT
Civil Twilight 5:32 AM CDT 8:01 PM CDT
Nautical Twilight 5:00 AM CDT 8:33 PM CDT
Astronomical Twilight 4:27 AM CDT 9:05 PM CDT
Moon 10:56 AM CDT (8/1) 10:46 PM CDT (8/1)
Length of Visible Light 14h 29m
Length of Day
13h 36m
Tomorrow will be 1m 23s shorter.
Waxing Crescent, 31% of the Moon is Illuminated
Today
Waxing Crescent
Aug 3
First Quarter
Aug 10
Full
Aug 17
Last Quarter
Aug 25
New

Today's Extremes

State Highs State Lows

Community

WunderPhotos

Upload Photos

1,739,814 photos uploaded!

Nearby

Snow Depth

Station Depth Elevation
No new snow has been reported.

Earthquake Activity

City Distance Mag. Time & Date
No recent earthquake activity has been reported nearby.
Minimum magnitude displayed is 2.5.

Coastal Water Temperatures

Place Temperature
No Stations Reporting

Nearby Weather Stations

Station Location Temp. Heat Index Dew Point Humidity Wind Precip. Elev Updated Type
Cypress, Marianna, FL 75.3 °F 75 °F 72 °F 90% North  at  0.0 mph 0.00 in / hr 138 ft 9:13 PM CDT Rapid Fire
Silver Lake Road, Fountain, FL 71.8 °F - 68 °F 89% NW  at  0.0 mph 0.00 in / hr 178 ft 10:17 PM EST Normal

Show More Stations Show Fewer Stations